Terminal Aerodrome Forecast
Issued by NWS

Home | Current Version | Previous Version | Text Only | Print | Product List | Glossary On
Versions: 1 2 3 4 5 6 7 8 9 10 11 12 13 14 15 16 17 18 19 20 21
000
FTUS46 KSEW 010520
TAFBLI
TAF
KBLI 010520Z 0106/0206 17004KT P6SM SCT070 SCT150
     FM010900 13005KT P6SM BKN070 BKN150
     FM011600 14007KT P6SM BKN050 BKN120
     FM011900 15012KT P6SM -SHRA OVC040
     FM020300 07005KT P6SM BKN050 OVC090=

USA.gov is the U.S. government's official web portal to all federal, state and local government web resources and services.